Terminal Aerodrome Forecast
Issued by NWS

Home | Current Version | Previous Version | Text Only | Print | Product List | Glossary On
Versions: 1 2 3 4 5 6 7 8 9 10 11 12 13 14 15 16 17 18 19 20 21 22 23 24 25 26 27 28 29 30 31
000
FTAK31 PAFA 201821 AAA
TAFAGA
TAF AMD
PAGA 201821Z 2018/2118 26010KT P6SM -SHRA FEW006 OVC015
      TEMPO 2018/2020 5SM BR BKN006
     FM210000 23008KT P6SM VCSH BKN050
     FM210600 27005KT P6SM SCT020 BKN080
     FM211000 VRB02KT 4SM BR BKN012=

USA.gov is the U.S. government's official web portal to all federal, state and local government web resources and services.